Time;durP1;ratioP1;P1;durP2;ratioP2;P2;SDS_P1;SDS_P2;PMS_P1;PMS_P2;Temp;Humidity;BMP_temperature;BMP_pressure;BME280_temperature;BME280_humidity;BME280_pressure;Samples;Min_cycle;Max_cycle;Signal;HPM_P1;HPM_P2
2021/08/01 00:01:02;;;;;;;;;;;27.20;94.50;;;;;;5064933;28;19905;-45
2021/08/01 00:03:29;;;;;;;;;;;27.20;94.40;;;;;;5065271;28;19920;-45
2021/08/01 00:05:55;;;;;;;;;;;27.20;94.40;;;;;;5064759;28;19944;-44
2021/08/01 00:08:23;;;;;;;;;;;27.20;94.60;;;;;;5064936;28;19913;-46
2021/08/01 00:10:50;;;;;;;;;;;27.20;94.80;;;;;;5064587;28;19911;-38
2021/08/01 00:13:17;;;;;;;;;;;27.10;94.80;;;;;;5064586;28;19920;-39
2021/08/01 00:15:43;;;;;;;;;;;27.00;94.80;;;;;;5064592;28;19912;-45
2021/08/01 00:18:09;;;;;;;;;;;26.90;94.80;;;;;;5064611;28;20294;-39
2021/08/01 00:20:36;;;;;;;;;;;26.80;95.10;;;;;;5064868;28;19967;-39
2021/08/01 00:23:05;;;;;;;;;;;26.80;95.20;;;;;;5064748;28;20151;-40
2021/08/01 00:25:31;;;;;;;;;;;26.70;95.30;;;;;;5063244;28;19979;-41
2021/08/01 00:27:57;;;;;;;;;;;26.70;95.30;;;;;;5064693;28;19913;-41
2021/08/01 00:30:23;;;;;;;;;;;26.70;95.40;;;;;;5064109;28;20045;-43
2021/08/01 00:32:50;;;;;;;;;;;26.80;95.40;;;;;;5064646;28;19913;-41
2021/08/01 00:35:16;;;;;;;;;;;26.70;95.40;;;;;;5064298;28;19927;-40
2021/08/01 00:37:42;;;;;;;;;;;26.60;95.30;;;;;;5063099;28;19912;-42
2021/08/01 00:40:09;;;;;;;;;;;26.50;95.40;;;;;;5063212;28;19975;-46
2021/08/01 00:42:35;;;;;;;;;;;26.50;95.60;;;;;;5063114;28;20097;-40
2021/08/01 00:45:01;;;;;;;;;;;26.60;95.60;;;;;;5063985;28;19991;-46
2021/08/01 00:47:28;;;;;;;;;;;26.60;95.50;;;;;;5064172;28;19913;-39
2021/08/01 00:49:54;;;;;;;;;;;26.60;95.80;;;;;;5064099;28;20193;-43
2021/08/01 00:52:20;;;;;;;;;;;26.60;95.50;;;;;;5062831;28;19920;-43
2021/08/01 00:54:47;;;;;;;;;;;26.60;95.60;;;;;;5063936;28;19904;-39
2021/08/01 00:57:13;;;;;;;;;;;26.60;95.50;;;;;;5064073;28;19962;-39
2021/08/01 00:59:40;;;;;;;;;;;26.60;95.60;;;;;;5063985;28;20078;-40
2021/08/01 01:02:08;;;;;;;;;;;26.60;95.70;;;;;;5064996;28;19944;-40
2021/08/01 01:04:34;;;;;;;;;;;26.50;95.60;;;;;;5067852;28;19904;-40
2021/08/01 01:19:00;;;;;;;;;;;26.50;95.60;;;;;;5102206;28;19940;-42
2021/08/01 01:21:26;;;;;;;;;;;26.80;95.20;;;;;;5100785;28;19917;-45
2021/08/01 01:24:07;;;;;;;;;;;26.80;95.20;;;;;;5100153;28;19911;-44
2021/08/01 01:26:35;;;;;;;;;;;26.80;95.30;;;;;;5101176;28;19952;-45
2021/08/01 01:29:11;;;;;;;;;;;26.80;95.30;;;;;;5099982;28;19905;-43
2021/08/01 01:31:41;;;;;;;;;;;26.80;95.20;;;;;;5101595;28;19987;-47
2021/08/01 01:34:16;;;;;;;;;;;26.70;95.20;;;;;;5083373;28;20111;-49
2021/08/01 01:36:44;;;;;;;;;;;26.70;95.20;;;;;;5101605;28;19912;-48
2021/08/01 01:52:26;;;;;;;;;;;26.70;95.10;;;;;;5039489;27;2991475;-49
2021/08/01 01:54:53;;;;;;;;;;;26.90;95.00;;;;;;5141752;27;19916;-48
2021/08/01 01:57:19;;;;;;;;;;;26.80;95.00;;;;;;5142820;27;19907;-46
2021/08/01 01:59:45;;;;;;;;;;;26.80;95.10;;;;;;5142073;27;19908;-49
2021/08/01 02:02:12;;;;;;;;;;;26.80;95.10;;;;;;5142514;27;19939;-43
2021/08/01 02:04:38;;;;;;;;;;;26.80;95.20;;;;;;5142633;27;19903;-45
2021/08/01 02:07:05;;;;;;;;;;;26.70;95.20;;;;;;5141344;27;19912;-46
2021/08/01 02:09:46;;;;;;;;;;;26.70;95.20;;;;;;5141280;27;19904;-46
2021/08/01 02:12:13;;;;;;;;;;;26.70;95.30;;;;;;5142495;27;19912;-47
2021/08/01 02:14:54;;;;;;;;;;;26.60;95.30;;;;;;5142012;27;19911;-39
2021/08/01 02:17:24;;;;;;;;;;;26.60;95.40;;;;;;5135441;27;20104;-39
2021/08/01 02:19:51;;;;;;;;;;;26.50;95.50;;;;;;5133153;27;19911;-41
2021/08/01 02:22:17;;;;;;;;;;;26.50;95.60;;;;;;5153096;27;19911;-37
2021/08/01 02:24:45;;;;;;;;;;;26.30;95.70;;;;;;5151036;27;19987;-40
2021/08/01 02:27:11;;;;;;;;;;;26.40;95.70;;;;;;5161982;27;19910;-39
2021/08/01 02:29:40;;;;;;;;;;;26.40;95.80;;;;;;5162482;27;20194;-39
2021/08/01 02:32:07;;;;;;;;;;;26.40;95.80;;;;;;5151173;27;19904;-39
2021/08/01 02:34:33;;;;;;;;;;;26.30;95.80;;;;;;5124894;28;19908;-40
2021/08/01 02:37:00;;;;;;;;;;;26.20;95.80;;;;;;5141818;28;19908;-39
2021/08/01 02:39:27;;;;;;;;;;;26.20;96.00;;;;;;5141814;28;19911;-39
2021/08/01 02:41:54;;;;;;;;;;;26.20;96.10;;;;;;5130088;28;19920;-39
2021/08/01 02:44:30;;;;;;;;;;;26.20;96.10;;;;;;5121117;28;19950;-44
2021/08/01 02:46:57;;;;;;;;;;;26.10;96.10;;;;;;5121057;28;19912;-39
2021/08/01 02:49:26;;;;;;;;;;;26.10;96.10;;;;;;5121585;28;20065;-42
2021/08/01 02:51:53;;;;;;;;;;;26.00;95.90;;;;;;5115585;28;19920;-48
2021/08/01 02:54:23;;;;;;;;;;;26.00;95.90;;;;;;5107245;28;19915;-44
2021/08/01 02:56:49;;;;;;;;;;;26.00;95.90;;;;;;5107703;28;19912;-43
2021/08/01 02:59:16;;;;;;;;;;;26.10;95.90;;;;;;5089212;28;19975;-48
2021/08/01 03:01:43;;;;;;;;;;;26.10;95.90;;;;;;5107609;28;19953;-47
2021/08/01 03:04:13;;;;;;;;;;;26.10;95.90;;;;;;5089367;28;19996;-43
2021/08/01 03:06:40;;;;;;;;;;;26.10;95.80;;;;;;5107649;28;20030;-45
2021/08/01 03:09:09;;;;;;;;;;;26.10;95.80;;;;;;5107182;28;20100;-46
2021/08/01 03:11:36;;;;;;;;;;;26.20;95.80;;;;;;5088168;28;19966;-43
2021/08/01 03:14:03;;;;;;;;;;;26.20;95.70;;;;;;5106927;28;19905;-44
2021/08/01 03:16:29;;;;;;;;;;;26.20;95.70;;;;;;5107207;28;19912;-44
2021/08/01 03:18:56;;;;;;;;;;;26.30;95.70;;;;;;5106792;28;19916;-44
2021/08/01 03:21:22;;;;;;;;;;;26.20;95.80;;;;;;5107204;28;19920;-49
2021/08/01 03:23:49;;;;;;;;;;;26.20;95.70;;;;;;5106982;28;19910;-46
2021/08/01 03:26:15;;;;;;;;;;;26.20;95.80;;;;;;5107009;28;19977;-45
2021/08/01 03:28:41;;;;;;;;;;;26.20;95.80;;;;;;5106686;28;19965;-48
2021/08/01 03:31:07;;;;;;;;;;;26.20;95.80;;;;;;5106938;28;19912;-46
2021/08/01 03:33:33;;;;;;;;;;;26.20;95.70;;;;;;5106687;28;19904;-43
2021/08/01 03:35:59;;;;;;;;;;;26.20;95.80;;;;;;5106878;28;19954;-45
2021/08/01 03:38:26;;;;;;;;;;;26.20;95.80;;;;;;5088695;28;19904;-42
2021/08/01 03:40:52;;;;;;;;;;;26.20;95.70;;;;;;5088249;28;19919;-43
2021/08/01 03:43:18;;;;;;;;;;;26.20;95.80;;;;;;5106481;28;19904;-43
2021/08/01 03:45:44;;;;;;;;;;;26.20;95.80;;;;;;5106671;28;19944;-43
2021/08/01 03:48:10;;;;;;;;;;;26.20;95.90;;;;;;5106357;28;19904;-44
2021/08/01 03:50:37;;;;;;;;;;;26.20;95.90;;;;;;5106493;28;19956;-45
2021/08/01 03:53:03;;;;;;;;;;;26.20;95.90;;;;;;5106319;28;19904;-43
2021/08/01 03:55:30;;;;;;;;;;;26.20;95.90;;;;;;5106407;28;20192;-42
2021/08/01 03:57:56;;;;;;;;;;;26.20;95.90;;;;;;5106107;28;19969;-46
2021/08/01 04:00:22;;;;;;;;;;;26.20;95.90;;;;;;5088260;28;19916;-44
2021/08/01 04:02:48;;;;;;;;;;;26.10;95.90;;;;;;5105818;28;19942;-43
2021/08/01 04:05:14;;;;;;;;;;;26.10;95.90;;;;;;5105531;28;19954;-43
2021/08/01 04:07:40;;;;;;;;;;;26.10;95.90;;;;;;5106053;28;20099;-42
2021/08/01 04:10:07;;;;;;;;;;;26.10;95.90;;;;;;5106343;28;19920;-43
2021/08/01 04:12:33;;;;;;;;;;;26.20;95.90;;;;;;5105995;28;19908;-43
2021/08/01 04:14:59;;;;;;;;;;;26.10;95.90;;;;;;5106175;28;19919;-44
2021/08/01 04:17:28;;;;;;;;;;;26.10;95.90;;;;;;5106012;28;19946;-43
2021/08/01 04:19:54;;;;;;;;;;;26.10;95.90;;;;;;5105738;28;19912;-43
2021/08/01 04:22:20;;;;;;;;;;;26.10;95.90;;;;;;5105629;28;19949;-43
2021/08/01 04:24:46;;;;;;;;;;;26.10;95.90;;;;;;5105736;28;19928;-45
2021/08/01 04:27:12;;;;;;;;;;;26.10;95.80;;;;;;5105713;28;19911;-50
2021/08/01 04:29:39;;;;;;;;;;;26.10;95.90;;;;;;5105647;28;19904;-42
2021/08/01 04:32:05;;;;;;;;;;;26.10;95.90;;;;;;5105994;28;19904;-46
2021/08/01 04:34:31;;;;;;;;;;;26.10;95.90;;;;;;5087295;28;19904;-49
2021/08/01 04:36:57;;;;;;;;;;;26.10;95.90;;;;;;5105355;28;19905;-44
2021/08/01 04:39:23;;;;;;;;;;;26.00;95.80;;;;;;5105467;28;19908;-44
2021/08/01 04:41:50;;;;;;;;;;;26.10;95.80;;;;;;5105716;28;19915;-45
2021/08/01 04:44:16;;;;;;;;;;;26.00;95.70;;;;;;5105549;28;19904;-48
2021/08/01 04:46:42;;;;;;;;;;;26.00;95.70;;;;;;5105709;28;19939;-43
2021/08/01 04:49:08;;;;;;;;;;;26.00;95.70;;;;;;5105052;28;20175;-48
2021/08/01 04:51:34;;;;;;;;;;;26.00;95.70;;;;;;5105083;28;19920;-48
2021/08/01 04:54:00;;;;;;;;;;;26.00;95.70;;;;;;5104984;28;19971;-45
2021/08/01 04:56:26;;;;;;;;;;;26.00;95.70;;;;;;5105327;28;20183;-42
2021/08/01 04:58:53;;;;;;;;;;;26.00;95.70;;;;;;5104787;28;20199;-42
2021/08/01 05:01:19;;;;;;;;;;;26.00;95.80;;;;;;5105052;28;20140;-43
2021/08/01 05:03:45;;;;;;;;;;;26.00;95.80;;;;;;5104783;28;20130;-43
2021/08/01 05:06:11;;;;;;;;;;;26.00;95.80;;;;;;5104897;28;19912;-45
2021/08/01 05:08:38;;;;;;;;;;;26.00;95.80;;;;;;5104664;28;19908;-47
2021/08/01 05:11:04;;;;;;;;;;;26.00;95.80;;;;;;5104841;28;19918;-41
2021/08/01 05:13:31;;;;;;;;;;;25.90;95.80;;;;;;5104542;28;19910;-44
2021/08/01 05:15:57;;;;;;;;;;;25.90;95.90;;;;;;5104863;28;19943;-51
2021/08/01 05:18:23;;;;;;;;;;;25.90;95.90;;;;;;5104524;28;19904;-50
2021/08/01 05:20:50;;;;;;;;;;;25.90;95.90;;;;;;5104428;28;19920;-43
2021/08/01 05:23:16;;;;;;;;;;;25.90;95.80;;;;;;5086536;28;19908;-47
2021/08/01 05:25:42;;;;;;;;;;;25.90;95.80;;;;;;5104565;28;19916;-43
2021/08/01 05:28:08;;;;;;;;;;;25.90;95.80;;;;;;5104404;28;19904;-43
2021/08/01 05:30:34;;;;;;;;;;;25.90;95.70;;;;;;5104512;28;19916;-43
2021/08/01 05:33:05;;;;;;;;;;;25.90;95.80;;;;;;5104353;28;19904;-42
2021/08/01 05:35:31;;;;;;;;;;;25.90;95.80;;;;;;5104436;28;19926;-42
2021/08/01 05:37:57;;;;;;;;;;;25.90;95.80;;;;;;5104324;28;19904;-45
2021/08/01 05:40:23;;;;;;;;;;;25.80;95.70;;;;;;5104559;28;19916;-45
2021/08/01 05:42:50;;;;;;;;;;;25.80;95.60;;;;;;5104103;28;19907;-43
2021/08/01 05:45:16;;;;;;;;;;;25.80;95.60;;;;;;5104525;28;19912;-48
2021/08/01 05:47:42;;;;;;;;;;;25.80;95.70;;;;;;5104277;28;20179;-45
2021/08/01 05:50:09;;;;;;;;;;;25.80;95.60;;;;;;5104359;28;20286;-42
2021/08/01 05:52:35;;;;;;;;;;;25.80;95.60;;;;;;5104034;28;19961;-45
2021/08/01 05:55:02;;;;;;;;;;;25.80;95.60;;;;;;5104304;28;19939;-43
2021/08/01 05:57:28;;;;;;;;;;;25.80;95.60;;;;;;5104176;28;19904;-45
2021/08/01 05:59:54;;;;;;;;;;;25.80;95.60;;;;;;5104362;28;20117;-45
2021/08/01 06:02:20;;;;;;;;;;;25.80;95.70;;;;;;5104233;28;19926;-43
2021/08/01 06:04:46;;;;;;;;;;;25.80;95.70;;;;;;5104089;28;19904;-42
2021/08/01 06:07:13;;;;;;;;;;;25.80;95.60;;;;;;5103880;28;19971;-43
2021/08/01 06:09:39;;;;;;;;;;;25.80;95.50;;;;;;5103988;28;19908;-48
2021/08/01 06:12:06;;;;;;;;;;;25.70;95.50;;;;;;5104059;28;20184;-41
2021/08/01 06:14:32;;;;;;;;;;;25.70;95.60;;;;;;5104084;28;20180;-48
2021/08/01 06:16:58;;;;;;;;;;;25.70;95.50;;;;;;5104159;28;20187;-43
2021/08/01 06:19:24;;;;;;;;;;;25.70;95.50;;;;;;5104081;28;20123;-44
2021/08/01 06:21:50;;;;;;;;;;;25.70;95.50;;;;;;5104508;28;19916;-49
2021/08/01 06:24:16;;;;;;;;;;;25.70;95.60;;;;;;5103767;28;19904;-43
2021/08/01 06:26:42;;;;;;;;;;;25.70;95.60;;;;;;5104604;28;19912;-48
2021/08/01 06:29:09;;;;;;;;;;;25.70;95.50;;;;;;5107481;28;19908;-44
2021/08/01 06:31:35;;;;;;;;;;;25.70;95.50;;;;;;5107975;28;19939;-49
2021/08/01 06:34:01;;;;;;;;;;;25.70;95.50;;;;;;5107582;28;19911;-44
2021/08/01 06:36:27;;;;;;;;;;;25.70;95.60;;;;;;5107823;28;19919;-46
2021/08/01 06:38:53;;;;;;;;;;;25.70;95.60;;;;;;5107552;28;19919;-44
2021/08/01 06:41:19;;;;;;;;;;;25.70;95.60;;;;;;5107789;28;20119;-44
2021/08/01 06:43:46;;;;;;;;;;;25.60;95.60;;;;;;5107431;28;20252;-46
2021/08/01 06:46:12;;;;;;;;;;;25.60;95.60;;;;;;5107742;28;19919;-42
2021/08/01 06:48:38;;;;;;;;;;;25.70;95.70;;;;;;5107408;28;19904;-44
2021/08/01 06:51:07;;;;;;;;;;;25.60;95.70;;;;;;5107209;28;19927;-42
2021/08/01 06:53:34;;;;;;;;;;;25.60;95.70;;;;;;5107153;28;20156;-44
2021/08/01 06:56:00;;;;;;;;;;;25.60;95.70;;;;;;5107602;28;19912;-44
2021/08/01 06:58:26;;;;;;;;;;;25.60;95.70;;;;;;5107169;28;19911;-47
2021/08/01 07:00:52;;;;;;;;;;;25.60;95.70;;;;;;5107256;28;19923;-42
2021/08/01 07:03:19;;;;;;;;;;;25.60;95.80;;;;;;5107102;28;19975;-46
2021/08/01 07:05:45;;;;;;;;;;;25.60;95.80;;;;;;5107252;28;19912;-41
2021/08/01 07:08:12;;;;;;;;;;;25.60;95.80;;;;;;5106678;28;19912;-43
2021/08/01 07:10:38;;;;;;;;;;;25.60;95.80;;;;;;5107136;28;19912;-44
2021/08/01 07:13:05;;;;;;;;;;;25.60;95.80;;;;;;5106969;28;19927;-42
2021/08/01 07:15:31;;;;;;;;;;;25.60;95.80;;;;;;5106900;28;19912;-41
2021/08/01 07:17:58;;;;;;;;;;;25.60;95.80;;;;;;5106984;28;19962;-44
2021/08/01 07:20:25;;;;;;;;;;;25.60;95.80;;;;;;5106980;28;20210;-44
2021/08/01 07:22:51;;;;;;;;;;;25.60;95.90;;;;;;5106684;28;19920;-42
2021/08/01 07:25:18;;;;;;;;;;;25.60;95.90;;;;;;5106755;28;20238;-41
2021/08/01 07:27:44;;;;;;;;;;;25.60;95.90;;;;;;5106617;28;19948;-41
2021/08/01 07:30:10;;;;;;;;;;;25.60;95.90;;;;;;5106577;28;19919;-40
2021/08/01 07:32:36;;;;;;;;;;;25.60;95.90;;;;;;5106659;28;20251;-42
2021/08/01 07:35:03;;;;;;;;;;;25.60;95.90;;;;;;5106832;28;20087;-41
2021/08/01 07:37:32;;;;;;;;;;;25.60;95.90;;;;;;5106228;28;19908;-41
2021/08/01 07:39:58;;;;;;;;;;;25.60;96.00;;;;;;5106351;28;19920;-44
2021/08/01 07:42:24;;;;;;;;;;;25.60;96.10;;;;;;5106321;28;19950;-47
2021/08/01 07:44:55;;;;;;;;;;;25.50;96.00;;;;;;5106042;28;19912;-44
2021/08/01 07:47:22;;;;;;;;;;;25.50;96.10;;;;;;5106096;28;20127;-46
2021/08/01 07:49:49;;;;;;;;;;;25.60;96.10;;;;;;5106067;28;19956;-44
2021/08/01 07:52:18;;;;;;;;;;;25.50;96.00;;;;;;5105790;28;19983;-43
2021/08/01 07:54:45;;;;;;;;;;;25.60;96.10;;;;;;5106250;28;20145;-47
2021/08/01 07:57:22;;;;;;;;;;;25.60;96.10;;;;;;5106082;28;19911;-46
2021/08/01 07:59:48;;;;;;;;;;;25.50;96.10;;;;;;5105715;28;20023;-45
2021/08/01 08:02:14;;;;;;;;;;;25.50;96.10;;;;;;5105943;28;19908;-48
2021/08/01 08:04:40;;;;;;;;;;;25.50;96.10;;;;;;5105961;28;20135;-47
2021/08/01 08:07:07;;;;;;;;;;;25.60;96.20;;;;;;5105610;28;19967;-44
2021/08/01 08:09:33;;;;;;;;;;;25.50;96.20;;;;;;5105762;28;19911;-45
2021/08/01 08:11:59;;;;;;;;;;;25.60;96.20;;;;;;5105741;28;20207;-42
2021/08/01 08:14:25;;;;;;;;;;;25.50;96.20;;;;;;5105689;28;19935;-42
2021/08/01 08:16:51;;;;;;;;;;;25.50;96.20;;;;;;5106145;28;19950;-47
2021/08/01 08:19:18;;;;;;;;;;;25.50;96.30;;;;;;5105519;28;19942;-43
2021/08/01 08:21:44;;;;;;;;;;;25.50;96.30;;;;;;5105616;28;19916;-42
2021/08/01 08:24:10;;;;;;;;;;;25.50;96.20;;;;;;5105614;28;19904;-46
2021/08/01 08:26:36;;;;;;;;;;;25.50;96.30;;;;;;5105864;28;19934;-42
2021/08/01 08:29:02;;;;;;;;;;;25.50;96.50;;;;;;5105508;28;19908;-43
2021/08/01 08:31:28;;;;;;;;;;;25.50;96.30;;;;;;5105773;28;20298;-42
2021/08/01 08:33:55;;;;;;;;;;;25.50;96.30;;;;;;5105335;28;19964;-45
2021/08/01 08:36:21;;;;;;;;;;;25.50;96.20;;;;;;5105706;28;19958;-42
2021/08/01 08:38:47;;;;;;;;;;;25.50;96.20;;;;;;5105162;28;19960;-43
2021/08/01 08:41:14;;;;;;;;;;;25.50;96.20;;;;;;5105398;28;20184;-45
2021/08/01 08:43:40;;;;;;;;;;;25.50;96.20;;;;;;5105279;28;19912;-46
2021/08/01 08:46:08;;;;;;;;;;;25.50;96.20;;;;;;5105435;28;19973;-44
2021/08/01 08:48:35;;;;;;;;;;;25.50;96.20;;;;;;5105229;28;19912;-44
2021/08/01 08:51:01;;;;;;;;;;;25.50;96.20;;;;;;5104550;28;19920;-47
2021/08/01 08:53:28;;;;;;;;;;;25.50;96.20;;;;;;5104764;28;19911;-47
2021/08/01 08:55:55;;;;;;;;;;;25.50;96.20;;;;;;5105475;28;19920;-51
2021/08/01 08:58:23;;;;;;;;;;;25.50;96.20;;;;;;5104901;28;19911;-44
2021/08/01 09:00:49;;;;;;;;;;;25.50;96.20;;;;;;5104934;28;20012;-44
2021/08/01 09:03:15;;;;;;;;;;;25.50;96.30;;;;;;5104734;28;20130;-43
2021/08/01 09:05:41;;;;;;;;;;;25.50;96.30;;;;;;5104891;28;19912;-44
2021/08/01 09:08:07;;;;;;;;;;;25.50;96.30;;;;;;5104720;28;20148;-42
2021/08/01 09:10:34;;;;;;;;;;;25.50;96.40;;;;;;5105154;28;19916;-44
2021/08/01 09:13:00;;;;;;;;;;;25.50;96.40;;;;;;5104693;28;20239;-40
2021/08/01 09:15:28;;;;;;;;;;;25.50;96.40;;;;;;5104845;28;20100;-42
2021/08/01 09:17:55;;;;;;;;;;;25.50;96.40;;;;;;5104679;28;19931;-43
2021/08/01 09:20:29;;;;;;;;;;;25.50;96.40;;;;;;5104824;28;19955;-42
2021/08/01 09:23:01;;;;;;;;;;;25.50;96.40;;;;;;5104459;28;19927;-42
2021/08/01 09:25:32;;;;;;;;;;;25.50;96.50;;;;;;5104751;28;19943;-47
2021/08/01 09:28:07;;;;;;;;;;;25.50;96.50;;;;;;5104684;28;19971;-40
2021/08/01 09:30:49;;;;;;;;;;;25.50;96.40;;;;;;5104713;28;19943;-42
2021/08/01 09:33:18;;;;;;;;;;;25.50;96.50;;;;;;5104554;28;19904;-43
2021/08/01 09:35:45;;;;;;;;;;;25.50;96.60;;;;;;5104743;28;19913;-43
2021/08/01 09:38:13;;;;;;;;;;;25.50;96.60;;;;;;5104592;28;19912;-42
2021/08/01 09:40:39;;;;;;;;;;;25.40;96.60;;;;;;5104310;28;19923;-47
2021/08/01 09:43:10;;;;;;;;;;;25.50;96.60;;;;;;5104434;28;20115;-43
2021/08/01 09:45:36;;;;;;;;;;;25.40;96.60;;;;;;5104402;28;19916;-45
2021/08/01 09:48:23;;;;;;;;;;;25.50;96.60;;;;;;5104333;28;19904;-44
2021/08/01 09:50:58;;;;;;;;;;;25.40;96.70;;;;;;5103961;28;19920;-43
2021/08/01 09:53:25;;;;;;;;;;;25.50;96.60;;;;;;5104192;28;19904;-46
2021/08/01 09:56:09;;;;;;;;;;;25.40;96.60;;;;;;5104416;28;19912;-48
2021/08/01 09:58:36;;;;;;;;;;;25.50;96.60;;;;;;5104144;28;19949;-43
2021/08/01 10:01:03;;;;;;;;;;;25.50;96.60;;;;;;5104541;28;19995;-45
2021/08/01 10:03:39;;;;;;;;;;;25.50;96.60;;;;;;5107663;28;20100;-43
2021/08/01 10:06:09;;;;;;;;;;;25.40;96.50;;;;;;5090133;28;19978;-49
2021/08/01 10:08:37;;;;;;;;;;;25.40;96.60;;;;;;5108132;28;19935;-44
2021/08/01 10:11:29;;;;;;;;;;;25.40;96.60;;;;;;5108427;28;19913;-45
2021/08/01 10:13:56;;;;;;;;;;;25.40;96.60;;;;;;5104211;28;19908;-41
2021/08/01 10:16:23;;;;;;;;;;;25.40;96.60;;;;;;5108575;28;19987;-41
2021/08/01 10:18:50;;;;;;;;;;;25.40;96.60;;;;;;5107815;28;19904;-43
2021/08/01 10:21:19;;;;;;;;;;;25.40;96.60;;;;;;5108165;28;19916;-52
2021/08/01 10:23:46;;;;;;;;;;;25.40;96.60;;;;;;5107961;28;19904;-47
2021/08/01 10:26:13;;;;;;;;;;;25.40;96.60;;;;;;5108048;28;20135;-42
2021/08/01 10:28:45;;;;;;;;;;;25.40;96.60;;;;;;5108024;28;19906;-42
2021/08/01 10:31:15;;;;;;;;;;;25.40;96.60;;;;;;5107988;28;19912;-42
2021/08/01 10:33:46;;;;;;;;;;;25.30;96.60;;;;;;5107700;28;19904;-42
2021/08/01 10:36:14;;;;;;;;;;;25.40;96.60;;;;;;5107576;28;19912;-46
2021/08/01 10:38:40;;;;;;;;;;;25.40;96.60;;;;;;5073163;28;19949;-46
2021/08/01 10:41:10;;;;;;;;;;;25.40;96.60;;;;;;5107688;28;19916;-41
2021/08/01 10:43:37;;;;;;;;;;;25.40;96.50;;;;;;5107387;28;20212;-43
2021/08/01 10:46:04;;;;;;;;;;;25.30;96.50;;;;;;5107562;28;20171;-47
2021/08/01 10:48:31;;;;;;;;;;;25.30;96.50;;;;;;5107407;28;19904;-43
2021/08/01 10:50:57;;;;;;;;;;;25.30;96.50;;;;;;5107266;28;19927;-45
2021/08/01 10:53:27;;;;;;;;;;;25.30;96.60;;;;;;5107495;28;19946;-45
2021/08/01 10:56:06;;;;;;;;;;;25.30;96.60;;;;;;5107498;28;19939;-44
2021/08/01 10:58:35;;;;;;;;;;;25.30;96.60;;;;;;5107031;28;19949;-43
2021/08/01 11:01:03;;;;;;;;;;;25.30;96.70;;;;;;5107346;28;19953;-44
2021/08/01 11:03:30;;;;;;;;;;;25.30;96.70;;;;;;5107324;28;20207;-44
2021/08/01 11:05:57;;;;;;;;;;;25.30;96.80;;;;;;5107198;28;19919;-48
2021/08/01 11:08:23;;;;;;;;;;;25.30;96.80;;;;;;5107195;28;19904;-43
2021/08/01 11:11:08;;;;;;;;;;;25.30;96.90;;;;;;5107340;28;19919;-43
2021/08/01 11:13:36;;;;;;;;;;;25.30;96.90;;;;;;5106460;28;20211;-43
2021/08/01 11:16:02;;;;;;;;;;;25.30;96.90;;;;;;5107323;28;19947;-43
2021/08/01 11:18:36;;;;;;;;;;;25.30;97.00;;;;;;5107253;28;19905;-42
2021/08/01 11:21:06;;;;;;;;;;;25.30;96.90;;;;;;5107094;28;19916;-48
2021/08/01 11:23:45;;;;;;;;;;;25.30;97.10;;;;;;5106958;28;19904;-48
2021/08/01 11:26:12;;;;;;;;;;;25.40;97.10;;;;;;5106905;28;19912;-42
2021/08/01 11:28:39;;;;;;;;;;;25.40;97.20;;;;;;5106815;28;19904;-42
2021/08/01 11:31:11;;;;;;;;;;;25.40;97.20;;;;;;5088918;28;19912;-42
2021/08/01 11:33:41;;;;;;;;;;;25.40;97.20;;;;;;5106671;28;19911;-43
2021/08/01 11:36:13;;;;;;;;;;;25.50;97.10;;;;;;5107030;28;19950;-42
2021/08/01 11:38:48;;;;;;;;;;;25.50;97.10;;;;;;5106401;28;20130;-41
2021/08/01 11:41:26;;;;;;;;;;;25.50;97.10;;;;;;5106585;28;19916;-45
2021/08/01 11:44:14;;;;;;;;;;;25.50;97.00;;;;;;5106559;28;19904;-47
2021/08/01 11:47:02;;;;;;;;;;;25.60;97.10;;;;;;5106775;28;19943;-47
2021/08/01 11:49:49;;;;;;;;;;;25.60;97.10;;;;;;5093018;28;20188;-44
2021/08/01 11:52:21;;;;;;;;;;;25.60;97.20;;;;;;5105856;28;19924;-42
2021/08/01 11:54:53;;;;;;;;;;;25.60;97.20;;;;;;5106189;28;19914;-42
2021/08/01 11:57:19;;;;;;;;;;;25.70;97.20;;;;;;5106083;28;19945;-44
2021/08/01 11:59:51;;;;;;;;;;;25.70;97.10;;;;;;5105992;28;20104;-44
2021/08/01 12:02:17;;;;;;;;;;;25.70;97.10;;;;;;5106228;28;19918;-43
2021/08/01 12:04:54;;;;;;;;;;;25.70;97.10;;;;;;5106151;28;19904;-42
2021/08/01 12:07:20;;;;;;;;;;;25.70;97.00;;;;;;5106107;28;19908;-43
2021/08/01 12:09:46;;;;;;;;;;;25.80;97.10;;;;;;5106002;28;19904;-44
2021/08/01 12:12:13;;;;;;;;;;;25.80;97.10;;;;;;5106016;28;19975;-45
2021/08/01 12:14:40;;;;;;;;;;;25.80;97.10;;;;;;5105810;28;19920;-44
2021/08/01 12:17:10;;;;;;;;;;;25.70;97.20;;;;;;5105874;28;20188;-45
2021/08/01 12:19:40;;;;;;;;;;;25.80;97.20;;;;;;5105551;28;20131;-44
2021/08/01 12:22:10;;;;;;;;;;;25.80;97.00;;;;;;5105772;28;19912;-43
2021/08/01 12:24:41;;;;;;;;;;;25.80;97.20;;;;;;5104710;28;19904;-42
2021/08/01 12:27:10;;;;;;;;;;;25.80;97.00;;;;;;5105580;28;19908;-42
2021/08/01 12:29:37;;;;;;;;;;;25.80;97.00;;;;;;5105922;28;19911;-45
2021/08/01 12:32:16;;;;;;;;;;;25.80;96.90;;;;;;5106138;28;19908;-42
2021/08/01 12:34:43;;;;;;;;;;;25.80;96.90;;;;;;5105939;28;19908;-43
2021/08/01 12:37:09;;;;;;;;;;;25.90;97.00;;;;;;5106121;28;19912;-44
2021/08/01 12:40:02;;;;;;;;;;;25.90;97.00;;;;;;5105528;28;19951;-44
2021/08/01 12:42:28;;;;;;;;;;;25.80;96.90;;;;;;5101543;28;19912;-43
2021/08/01 12:44:56;;;;;;;;;;;25.90;96.90;;;;;;5105170;28;19915;-44
2021/08/01 12:47:22;;;;;;;;;;;25.90;97.00;;;;;;5105839;28;20172;-43
2021/08/01 12:49:49;;;;;;;;;;;25.90;97.10;;;;;;5105085;28;19975;-43
2021/08/01 12:52:23;;;;;;;;;;;25.80;97.10;;;;;;5105244;28;19920;-42
2021/08/01 12:54:50;;;;;;;;;;;25.90;97.10;;;;;;5105197;28;19979;-43
2021/08/01 12:57:16;;;;;;;;;;;25.90;97.10;;;;;;5105315;28;19958;-41
2021/08/01 13:00:02;;;;;;;;;;;25.90;97.10;;;;;;5104900;28;19939;-44
2021/08/01 13:02:29;;;;;;;;;;;25.90;97.10;;;;;;5105285;28;19923;-42
2021/08/01 13:04:56;;;;;;;;;;;25.90;97.10;;;;;;5104712;28;19908;-44
2021/08/01 13:07:22;;;;;;;;;;;25.90;97.00;;;;;;5105012;28;19912;-45
2021/08/01 13:09:58;;;;;;;;;;;25.80;97.00;;;;;;5105376;28;19962;-42
2021/08/01 13:12:24;;;;;;;;;;;25.90;97.10;;;;;;5104896;28;19947;-42
2021/08/01 13:14:50;;;;;;;;;;;25.80;97.00;;;;;;5104774;28;20134;-42
2021/08/01 13:17:18;;;;;;;;;;;25.80;97.00;;;;;;5104723;28;19912;-43
2021/08/01 13:19:44;;;;;;;;;;;25.80;97.00;;;;;;5105307;28;20131;-45
2021/08/01 13:22:12;;;;;;;;;;;25.80;96.90;;;;;;5105075;28;19916;-44
2021/08/01 13:24:39;;;;;;;;;;;25.80;96.90;;;;;;5104787;28;20164;-46
2021/08/01 13:27:06;;;;;;;;;;;25.80;96.90;;;;;;5104580;28;19912;-43
2021/08/01 13:29:32;;;;;;;;;;;25.80;96.90;;;;;;5104637;28;19911;-46
2021/08/01 13:32:15;;;;;;;;;;;25.80;96.90;;;;;;5104238;28;19919;-48
2021/08/01 13:34:45;;;;;;;;;;;25.90;97.00;;;;;;5104573;28;20100;-44
2021/08/01 13:37:26;;;;;;;;;;;25.90;97.00;;;;;;5104322;28;19962;-45
2021/08/01 13:40:00;;;;;;;;;;;25.80;97.00;;;;;;5104226;28;19968;-46
2021/08/01 13:42:36;;;;;;;;;;;25.90;97.00;;;;;;5104540;28;20148;-50
2021/08/01 13:45:06;;;;;;;;;;;25.90;97.10;;;;;;5104333;28;19912;-45
2021/08/01 13:47:33;;;;;;;;;;;25.90;97.00;;;;;;5104643;28;19940;-46
2021/08/01 13:49:59;;;;;;;;;;;26.00;97.10;;;;;;5104444;28;20192;-44
2021/08/01 13:52:26;;;;;;;;;;;25.90;97.00;;;;;;5104109;28;19943;-47
2021/08/01 13:54:53;;;;;;;;;;;26.00;97.10;;;;;;5104300;28;20216;-48
2021/08/01 13:57:23;;;;;;;;;;;26.00;96.90;;;;;;5104917;28;19954;-45
2021/08/01 13:59:50;;;;;;;;;;;26.00;97.00;;;;;;5104181;28;20104;-47
2021/08/01 14:02:16;;;;;;;;;;;26.00;96.90;;;;;;5104244;28;20177;-44
2021/08/01 14:04:42;;;;;;;;;;;26.10;96.90;;;;;;5104266;28;19904;-44
2021/08/01 14:07:08;;;;;;;;;;;26.10;96.90;;;;;;5104161;28;19912;-46
2021/08/01 14:09:35;;;;;;;;;;;26.10;96.90;;;;;;5104211;28;19904;-44
2021/08/01 14:12:01;;;;;;;;;;;26.10;96.80;;;;;;5104148;28;19912;-45
2021/08/01 14:14:28;;;;;;;;;;;26.10;96.80;;;;;;5104095;28;19904;-43
2021/08/01 14:16:54;;;;;;;;;;;26.10;96.80;;;;;;5104017;28;19918;-43
2021/08/01 14:19:20;;;;;;;;;;;26.20;96.70;;;;;;5104157;28;19905;-50
2021/08/01 14:21:47;;;;;;;;;;;26.20;96.70;;;;;;5103740;28;19943;-44
2021/08/01 14:24:14;;;;;;;;;;;26.20;96.80;;;;;;5104360;28;19908;-43
2021/08/01 14:26:41;;;;;;;;;;;26.30;96.60;;;;;;5103889;28;19927;-48
2021/08/01 14:29:08;;;;;;;;;;;26.30;96.50;;;;;;5085873;28;19908;-43
2021/08/01 14:31:36;;;;;;;;;;;26.30;96.30;;;;;;5103984;28;19904;-41
2021/08/01 14:34:02;;;;;;;;;;;26.40;96.40;;;;;;5103987;28;19912;-46
2021/08/01 14:36:30;;;;;;;;;;;26.40;96.30;;;;;;5103813;28;19971;-43
2021/08/01 14:39:01;;;;;;;;;;;26.40;96.30;;;;;;5104288;28;19908;-42
2021/08/01 14:41:27;;;;;;;;;;;26.40;96.30;;;;;;5103814;28;19914;-50
2021/08/01 14:43:54;;;;;;;;;;;26.40;96.30;;;;;;5103768;28;20199;-48
2021/08/01 14:46:22;;;;;;;;;;;26.40;96.40;;;;;;5104008;28;19941;-45